createdAt,value
2022-11-09T00:01:52.664Z,28.38
2022-11-09T00:04:26.731Z,23.45
2022-11-09T00:07:08.704Z,23.13
2022-11-09T00:09:49.773Z,20.52
2022-11-09T00:12:30.650Z,20.67
2022-11-09T00:15:12.400Z,22.00
2022-11-09T00:17:52.676Z,24.30
2022-11-09T00:20:45.929Z,20.42
2022-11-09T00:23:40.649Z,21.45
2022-11-09T00:26:28.650Z,20.48
2022-11-09T00:29:02.745Z,21.33
2022-11-09T00:31:49.645Z,25.75
2022-11-09T00:34:30.671Z,26.83
2022-11-09T00:37:17.706Z,19.67
2022-11-09T00:39:58.679Z,23.00
2022-11-09T00:42:52.650Z,19.15
2022-11-09T00:45:39.672Z,25.48
2022-11-09T00:48:14.821Z,19.38
2022-11-09T00:51:02.656Z,31.13
2022-11-09T00:53:37.732Z,20.60
2022-11-09T00:56:24.764Z,21.08
2022-11-09T00:59:07.660Z,24.67
2022-11-09T01:01:54.703Z,20.67
2022-11-09T01:04:36.652Z,23.45
2022-11-09T01:07:23.687Z,22.83
2022-11-09T01:09:57.738Z,21.23
2022-11-09T01:12:44.685Z,28.17
2022-11-09T01:15:18.747Z,21.27
2022-11-09T01:18:05.673Z,24.92
2022-11-09T01:20:40.108Z,25.98
2022-11-09T01:23:27.695Z,20.60
2022-11-09T01:26:09.773Z,20.75
2022-11-09T01:28:57.682Z,24.48
2022-11-09T01:31:31.731Z,17.58
2022-11-09T01:34:18.672Z,19.00
2022-11-09T01:36:52.728Z,20.95
2022-11-09T01:39:40.677Z,29.73
2022-11-09T01:42:21.668Z,21.40
2022-11-09T01:45:31.662Z,20.63
2022-11-09T01:48:14.602Z,20.42
2022-11-09T01:51:12.684Z,19.38
2022-11-09T01:53:49.623Z,19.00
2022-11-09T01:59:18.087Z,21.02
2022-11-09T02:02:06.685Z,19.35
2022-11-09T02:04:44.270Z,25.33
2022-11-09T02:07:31.659Z,21.48
2022-11-09T02:10:09.618Z,20.83
2022-11-09T02:12:57.674Z,19.83
2022-11-09T02:15:32.661Z,18.10
2022-11-09T02:18:20.683Z,21.63
2022-11-09T02:21:04.676Z,16.77
2022-11-09T02:23:45.758Z,20.98
2022-11-09T02:26:37.690Z,22.98
2022-11-09T02:29:20.730Z,18.10
2022-11-09T02:32:05.686Z,18.67
2022-11-09T02:34:46.661Z,21.25
2022-11-09T02:37:27.719Z,18.83
2022-11-09T02:40:03.529Z,24.23
2022-11-09T02:42:51.664Z,25.63
2022-11-09T02:45:25.647Z,21.35
2022-11-09T02:48:13.665Z,25.27
2022-11-09T02:50:47.628Z,18.80
2022-11-09T02:53:35.690Z,18.10
2022-11-09T02:56:09.722Z,22.10
2022-11-09T02:58:57.667Z,16.33
2022-11-09T03:01:31.754Z,18.92
2022-11-09T03:04:19.695Z,18.48
2022-11-09T03:06:59.704Z,19.55
2022-11-09T03:09:47.690Z,22.48
2022-11-09T03:12:30.888Z,22.55
2022-11-09T03:15:20.666Z,16.98
2022-11-09T03:17:54.667Z,22.20
2022-11-09T03:20:42.677Z,21.30
2022-11-09T03:23:16.811Z,21.65
2022-11-09T03:26:04.707Z,23.90
2022-11-09T03:28:38.678Z,17.83
2022-11-09T03:31:26.695Z,21.30
2022-11-09T03:34:14.673Z,23.92
2022-11-09T03:36:55.706Z,23.65
2022-11-09T03:39:42.685Z,27.13
2022-11-09T03:42:23.712Z,20.75
2022-11-09T03:45:11.693Z,18.10
2022-11-09T03:48:01.662Z,23.90
2022-11-09T03:50:42.703Z,22.63
2022-11-09T03:53:30.683Z,25.88
2022-11-09T03:56:04.657Z,21.55
2022-11-09T03:58:52.690Z,23.90
2022-11-09T04:01:26.673Z,21.85
2022-11-09T04:04:14.691Z,24.27
2022-11-09T04:06:54.747Z,26.73
2022-11-09T04:09:35.774Z,23.25
2022-11-09T04:12:15.698Z,24.58
2022-11-09T04:15:03.722Z,23.67
2022-11-09T04:17:37.671Z,24.63
2022-11-09T04:20:25.685Z,22.40
2022-11-09T04:23:07.701Z,19.00
2022-11-09T04:25:56.690Z,20.67
2022-11-09T04:28:30.713Z,24.50
2022-11-09T04:31:18.689Z,26.50
2022-11-09T04:33:52.694Z,22.30
2022-11-09T04:36:40.704Z,25.00
2022-11-09T04:39:14.698Z,21.65
2022-11-09T04:42:02.701Z,23.92
2022-11-09T04:44:36.677Z,21.85
2022-11-09T04:47:24.720Z,29.02
2022-11-09T04:50:04.707Z,27.73
2022-11-09T04:52:45.851Z,24.05
2022-11-09T04:55:26.716Z,27.40
2022-11-09T04:58:07.764Z,29.02
2022-11-09T05:00:47.708Z,30.25
2022-11-09T05:03:35.759Z,24.02
2022-11-09T05:06:34.789Z,24.77
2022-11-09T05:09:22.693Z,23.73
2022-11-09T05:11:56.763Z,25.77
2022-11-09T05:14:44.722Z,27.13
2022-11-09T05:17:18.819Z,26.52
2022-11-09T05:20:06.747Z,28.75
2022-11-09T05:23:05.717Z,30.67
2022-11-09T05:25:46.780Z,27.55
2022-11-09T05:28:26.725Z,35.65
2022-11-09T05:31:07.793Z,25.45
2022-11-09T05:33:48.698Z,23.63
2022-11-09T05:36:30.513Z,25.73
2022-11-09T05:39:10.691Z,28.42
2022-11-09T05:41:58.720Z,24.52
2022-11-09T05:44:32.658Z,24.40
2022-11-09T05:47:20.726Z,25.98
2022-11-09T05:49:54.646Z,22.92
2022-11-09T05:52:42.713Z,26.75
2022-11-09T05:55:16.668Z,29.15
2022-11-09T05:58:04.714Z,23.52
2022-11-09T06:00:39.050Z,25.63
2022-11-09T06:03:26.730Z,22.48
2022-11-09T06:06:09.243Z,29.33
2022-11-09T06:08:57.711Z,26.35
2022-11-09T06:11:31.644Z,27.75
2022-11-09T06:14:19.715Z,28.13
2022-11-09T06:16:53.685Z,24.30
2022-11-09T06:19:41.716Z,28.17
2022-11-09T06:22:15.729Z,33.08
2022-11-09T06:25:03.709Z,26.20
2022-11-09T06:27:44.715Z,28.17
2022-11-09T06:30:32.710Z,29.67
2022-11-09T06:33:06.812Z,31.88
2022-11-09T06:35:56.563Z,23.83
2022-11-09T06:38:30.847Z,27.58
2022-11-09T06:41:18.727Z,30.40
2022-11-09T06:43:58.698Z,18.90
2022-11-09T06:46:39.861Z,27.42
2022-11-09T06:49:19.701Z,26.73
2022-11-09T06:52:00.821Z,25.88
2022-11-09T06:54:47.715Z,33.78
2022-11-09T06:57:21.832Z,35.05
2022-11-09T07:00:09.711Z,27.25
2022-11-09T07:02:43.765Z,25.02
2022-11-09T07:05:31.729Z,28.35
2022-11-09T07:08:12.728Z,23.75
2022-11-09T07:10:59.725Z,26.10
2022-11-09T07:13:40.712Z,29.10
2022-11-09T07:16:28.707Z,27.27
2022-11-09T07:19:09.730Z,21.35
2022-11-09T07:21:56.717Z,25.73
2022-11-09T07:24:37.744Z,25.30
2022-11-09T07:27:31.709Z,20.45
2022-11-09T07:30:19.746Z,23.08
2022-11-09T07:33:08.694Z,25.15
2022-11-09T07:35:56.733Z,29.27
2022-11-09T07:38:37.723Z,35.50
2022-11-09T07:41:34.696Z,22.73
2022-11-09T07:44:24.777Z,23.17
2022-11-09T07:46:58.806Z,26.60
2022-11-09T07:49:46.752Z,21.10
2022-11-09T07:52:20.839Z,26.70
2022-11-09T07:55:07.747Z,28.00
2022-11-09T07:57:50.732Z,21.77
2022-11-09T08:00:39.735Z,24.58
2022-11-09T08:03:14.852Z,12.10
2022-11-09T08:06:04.752Z,20.05
2022-11-09T08:08:52.780Z,22.23
2022-11-09T08:11:26.872Z,26.83
2022-11-09T08:14:14.760Z,24.58
2022-11-09T08:16:54.744Z,22.20
2022-11-09T08:19:42.729Z,18.73
2022-11-09T08:22:16.707Z,26.67
2022-11-09T08:25:04.770Z,20.90
2022-11-09T08:27:40.307Z,18.00
2022-11-09T08:30:33.732Z,19.08
2022-11-09T08:33:13.724Z,20.55
2022-11-09T08:36:01.762Z,24.10
2022-11-09T08:38:56.754Z,24.10
2022-11-09T08:41:50.732Z,16.95
2022-11-09T08:44:37.754Z,23.50
2022-11-09T08:47:11.839Z,26.38
2022-11-09T08:49:58.737Z,23.67
2022-11-09T08:52:40.785Z,21.63
2022-11-09T08:55:20.765Z,19.92
2022-11-09T08:58:12.729Z,20.35
2022-11-09T09:00:53.715Z,20.35
2022-11-09T09:03:34.890Z,20.15
2022-11-09T09:06:15.732Z,19.55
2022-11-09T09:09:03.726Z,17.98
2022-11-09T09:11:43.746Z,22.20
2022-11-09T09:14:24.825Z,21.98
2022-11-09T09:17:04.733Z,21.58
2022-11-09T09:19:49.803Z,23.00
2022-11-09T09:22:29.781Z,19.95
2022-11-09T09:25:11.869Z,17.88
2022-11-09T09:27:52.738Z,24.33
2022-11-09T09:30:40.757Z,19.77
2022-11-09T09:33:21.750Z,24.10
2022-11-09T09:36:10.746Z,22.13
2022-11-09T09:38:44.770Z,19.92
2022-11-09T09:41:32.749Z,22.33
2022-11-09T09:44:17.729Z,22.58
2022-11-09T09:47:24.793Z,22.52
2022-11-09T09:50:28.824Z,27.83
2022-11-09T09:53:49.871Z,18.52
2022-11-09T09:56:40.757Z,22.55
2022-11-09T09:59:31.732Z,22.52
2022-11-09T10:02:35.756Z,26.15
2022-11-09T10:05:34.736Z,17.20
2022-11-09T10:08:40.741Z,19.83
2022-11-09T10:11:46.756Z,22.10
2022-11-09T10:14:36.765Z,19.73
2022-11-09T10:17:49.740Z,22.13
2022-11-09T10:20:52.694Z,19.45
2022-11-09T10:23:33.847Z,20.75
2022-11-09T10:26:28.755Z,21.75
2022-11-09T10:29:21.771Z,21.17
2022-11-09T10:32:01.374Z,19.27
2022-11-09T10:35:10.781Z,17.85
2022-11-09T10:37:46.860Z,19.90
2022-11-09T10:43:19.758Z,17.40
2022-11-09T10:46:18.767Z,19.17
2022-11-09T10:49:32.764Z,17.35
2022-11-09T10:55:29.742Z,19.80
2022-11-09T10:58:39.755Z,20.77
2022-11-09T11:01:31.815Z,15.32
2022-11-09T11:04:19.930Z,18.60
2022-11-09T11:07:21.555Z,17.77
2022-11-09T11:09:55.836Z,20.60
2022-11-09T11:12:42.778Z,23.63
2022-11-09T11:15:45.884Z,19.92
2022-11-09T11:18:33.791Z,20.35
2022-11-09T11:21:22.888Z,15.95
2022-11-09T11:24:15.757Z,20.67
2022-11-09T11:27:19.819Z,21.15
2022-11-09T11:30:34.754Z,19.67
2022-11-09T11:33:08.887Z,23.77
2022-11-09T11:36:02.813Z,18.17
2022-11-09T11:38:58.849Z,19.65
2022-11-09T11:41:54.794Z,21.13
2022-11-09T11:44:53.527Z,22.75
2022-11-09T11:48:04.780Z,20.05
2022-11-09T11:50:58.596Z,18.90
2022-11-09T11:56:26.336Z,17.60
2022-11-09T11:59:22.783Z,19.95
2022-11-09T12:02:28.822Z,18.83
2022-11-09T12:05:29.826Z,16.27
2022-11-09T12:08:24.777Z,15.68
2022-11-09T12:11:30.803Z,17.48
2022-11-09T12:14:24.774Z,16.98
2022-11-09T12:17:21.896Z,14.63
2022-11-09T12:20:29.813Z,18.13
2022-11-09T12:23:28.782Z,14.77
2022-11-09T12:26:24.154Z,19.70
2022-11-09T12:29:31.806Z,19.30
2022-11-09T12:32:25.111Z,21.23
2022-11-09T12:35:24.788Z,18.77
2022-11-09T12:38:04.865Z,20.65
2022-11-09T12:40:58.797Z,16.27
2022-11-09T12:43:32.876Z,12.90
2022-11-09T12:46:20.790Z,14.30
2022-11-09T12:49:02.967Z,15.70
2022-11-09T12:51:43.803Z,16.08
2022-11-09T12:54:24.842Z,13.70
2022-11-09T12:57:08.808Z,17.60
2022-11-09T12:59:54.121Z,15.30
2022-11-09T13:02:33.819Z,15.00
2022-11-09T13:05:40.784Z,15.70
2022-11-09T13:08:29.793Z,13.20
2022-11-09T13:11:31.807Z,14.98
2022-11-09T13:14:32.783Z,15.45
2022-11-09T13:17:38.826Z,15.35
2022-11-09T13:20:54.563Z,18.67
2022-11-09T13:24:01.212Z,13.23
2022-11-09T13:26:35.716Z,15.07
2022-11-09T13:29:23.803Z,17.35
2022-11-09T13:32:16.771Z,16.63
2022-11-09T13:34:59.911Z,13.40
2022-11-09T13:37:47.793Z,16.98
2022-11-09T13:40:37.932Z,15.48
2022-11-09T13:43:25.804Z,16.92
2022-11-09T13:46:01.941Z,19.48
2022-11-09T13:48:49.808Z,14.13
2022-11-09T13:51:33.793Z,20.10
2022-11-09T13:54:50.787Z,19.75
2022-11-09T13:57:38.782Z,15.23
2022-11-09T14:00:29.796Z,14.98
2022-11-09T14:03:32.822Z,18.95
2022-11-09T14:06:08.873Z,15.45
2022-11-09T14:08:56.800Z,14.93
2022-11-09T14:11:39.895Z,18.13
2022-11-09T14:14:26.813Z,16.15
2022-11-09T14:17:22.812Z,14.55
2022-11-09T14:20:51.839Z,14.53
2022-11-09T14:23:28.872Z,14.20
2022-11-09T14:26:27.794Z,16.35
2022-11-09T14:29:25.797Z,17.00
2022-11-09T14:32:31.786Z,17.38
2022-11-09T14:35:28.817Z,13.32
2022-11-09T14:38:04.880Z,20.15
2022-11-09T14:40:53.821Z,14.90
2022-11-09T14:43:32.918Z,19.13
2022-11-09T14:46:25.815Z,20.08
2022-11-09T14:49:09.881Z,15.00
2022-11-09T14:51:57.800Z,16.33
2022-11-09T14:54:33.894Z,17.98
2022-11-09T14:57:22.822Z,23.27
2022-11-09T14:59:57.792Z,23.30
2022-11-09T15:02:45.809Z,18.92
2022-11-09T15:05:45.845Z,14.18
2022-11-09T15:08:33.816Z,15.30
2022-11-09T15:11:14.813Z,16.55
2022-11-09T15:14:02.815Z,18.73
2022-11-09T15:16:44.813Z,19.58
2022-11-09T15:19:39.854Z,18.25
2022-11-09T15:22:40.808Z,16.00
2022-11-09T15:25:30.829Z,27.05
2022-11-09T15:31:11.812Z,22.90
2022-11-09T15:33:59.817Z,24.85
2022-11-09T15:36:46.820Z,29.70
2022-11-09T15:39:20.905Z,38.58
2022-11-09T15:42:07.831Z,32.10
2022-11-09T15:44:42.003Z,33.40
2022-11-09T15:47:30.819Z,35.67
2022-11-09T15:50:23.882Z,47.85
2022-11-09T15:53:03.822Z,137.88
2022-11-09T15:55:44.971Z,114.22
2022-11-09T15:58:25.823Z,58.05
2022-11-09T16:01:13.837Z,47.08
2022-11-09T16:03:47.840Z,55.60
2022-11-09T16:06:36.901Z,78.25
2022-11-09T16:09:10.784Z,83.95
2022-11-09T16:11:58.818Z,44.67
2022-11-09T16:14:33.246Z,74.68
2022-11-09T16:17:13.815Z,79.43
2022-11-09T16:19:54.834Z,49.20
2022-11-09T16:22:35.967Z,35.92
2022-11-09T16:25:23.862Z,26.40
2022-11-09T16:28:05.795Z,37.10
2022-11-09T16:30:47.291Z,49.97
2022-11-09T16:33:27.838Z,35.45
2022-11-09T16:36:16.821Z,28.88
2022-11-09T16:38:59.850Z,33.92
2022-11-09T16:41:40.919Z,28.50
2022-11-09T16:44:30.864Z,23.88
2022-11-09T16:47:11.853Z,25.52
2022-11-09T16:50:05.807Z,25.02
2022-11-09T16:52:52.844Z,22.60
2022-11-09T16:55:33.817Z,26.23
2022-11-09T16:58:21.082Z,24.15
2022-11-09T17:01:12.159Z,24.13
2022-11-09T17:04:00.876Z,23.15
2022-11-09T17:06:41.886Z,24.15
2022-11-09T17:09:35.823Z,16.88
2022-11-09T17:12:22.841Z,22.88
2022-11-09T17:15:03.825Z,22.90
2022-11-09T17:17:57.822Z,23.75
2022-11-09T17:20:38.823Z,21.38
2022-11-09T17:23:26.846Z,24.38
2022-11-09T17:26:14.823Z,26.55
2022-11-09T17:28:55.854Z,25.65
2022-11-09T17:31:49.875Z,23.70
2022-11-09T17:34:36.834Z,22.85
2022-11-09T17:37:10.916Z,25.25
2022-11-09T17:39:58.840Z,21.52
2022-11-09T17:42:32.930Z,21.83
2022-11-09T17:45:19.837Z,18.35
2022-11-09T17:47:53.915Z,32.88
2022-11-09T17:50:40.836Z,27.02
2022-11-09T17:53:28.823Z,28.20
2022-11-09T17:56:02.948Z,22.48
2022-11-09T17:58:54.843Z,22.17
2022-11-09T18:01:41.233Z,29.65
2022-11-09T18:04:22.896Z,39.00
2022-11-09T18:07:02.863Z,29.13
2022-11-09T18:09:43.921Z,28.45
2022-11-09T18:12:25.853Z,21.05
2022-11-09T18:15:06.981Z,25.67
2022-11-09T18:17:47.849Z,20.48
2022-11-09T18:20:35.848Z,24.33
2022-11-09T18:23:15.852Z,14.52
2022-11-09T18:26:09.839Z,21.75
2022-11-09T18:28:43.848Z,22.48
2022-11-09T18:31:31.838Z,24.90
2022-11-09T18:34:25.861Z,21.70
2022-11-09T18:37:12.845Z,29.45
2022-11-09T18:39:46.923Z,22.85
2022-11-09T18:42:34.900Z,18.60
2022-11-09T18:45:08.947Z,18.02
2022-11-09T18:47:56.850Z,19.20
2022-11-09T18:50:30.921Z,19.50
2022-11-09T18:53:18.142Z,45.47
2022-11-09T18:55:52.952Z,69.53
2022-11-09T18:58:40.845Z,28.55
2022-11-09T19:01:15.247Z,26.40
2022-11-09T19:04:02.858Z,60.17
2022-11-09T19:06:50.933Z,52.85
2022-11-09T19:09:44.858Z,73.45
2022-11-09T19:12:26.403Z,29.83
2022-11-09T19:15:06.862Z,25.83
2022-11-09T19:17:47.943Z,24.50
2022-11-09T19:20:27.844Z,21.80
2022-11-09T19:23:15.841Z,28.52
2022-11-09T19:25:56.845Z,18.85
2022-11-09T19:28:37.971Z,13.25
2022-11-09T19:31:22.858Z,26.50
2022-11-09T19:34:03.912Z,28.80
2022-11-09T19:36:44.836Z,35.08
2022-11-09T19:39:35.303Z,25.95
2022-11-09T19:42:16.871Z,22.98
2022-11-09T19:44:57.951Z,21.88
2022-11-09T19:47:37.840Z,23.85
2022-11-09T19:50:18.937Z,27.05
2022-11-09T19:52:58.850Z,23.92
2022-11-09T19:55:39.902Z,24.85
2022-11-09T19:58:20.096Z,33.67
2022-11-09T20:01:07.959Z,28.42
2022-11-09T20:03:47.844Z,36.75
2022-11-09T20:06:36.907Z,36.70
2022-11-09T20:09:16.850Z,21.13
2022-11-09T20:12:22.850Z,25.52
2022-11-09T20:14:57.047Z,27.42
2022-11-09T20:17:44.854Z,27.77
2022-11-09T20:20:18.884Z,24.05
2022-11-09T20:23:06.850Z,28.13
2022-11-09T20:25:46.865Z,31.92
2022-11-09T20:28:27.938Z,25.52
2022-11-09T20:31:08.874Z,29.70
2022-11-09T20:33:56.853Z,27.02
2022-11-09T20:36:36.857Z,29.35
2022-11-09T20:39:24.854Z,27.50
2022-11-09T20:41:58.843Z,31.88
2022-11-09T20:44:46.870Z,34.83
2022-11-09T20:48:07.192Z,34.72
2022-11-09T20:50:49.880Z,33.75
2022-11-09T20:53:30.861Z,26.88
2022-11-09T20:56:18.871Z,29.73
2022-11-09T20:58:52.944Z,41.95
2022-11-09T21:01:39.926Z,25.92
2022-11-09T21:04:13.978Z,63.22
2022-11-09T21:07:01.022Z,53.22
2022-11-09T21:09:35.030Z,43.33
2022-11-09T21:12:27.953Z,31.95
2022-11-09T21:15:01.959Z,35.22
2022-11-09T21:17:48.926Z,29.42
2022-11-09T21:20:22.938Z,28.90
2022-11-09T21:23:19.927Z,30.50
2022-11-09T21:26:19.819Z,36.50
2022-11-09T21:29:32.868Z,37.35
2022-11-09T21:32:13.953Z,44.55
2022-11-09T21:34:54.865Z,41.42
2022-11-09T21:37:36.000Z,35.45
2022-11-09T21:40:16.856Z,40.22
2022-11-09T21:42:57.954Z,33.15
2022-11-09T21:45:37.882Z,22.83
2022-11-09T21:48:25.838Z,36.83
2022-11-09T21:51:05.868Z,35.88
2022-11-09T21:53:53.866Z,35.25
2022-11-09T21:56:34.860Z,31.58
2022-11-09T21:59:22.858Z,36.20
2022-11-09T22:02:04.851Z,37.67
2022-11-09T22:04:58.854Z,28.50
2022-11-09T22:07:45.864Z,35.58
2022-11-09T22:10:27.009Z,38.05
2022-11-09T22:13:25.861Z,36.65
2022-11-09T22:16:06.965Z,31.15
2022-11-09T22:19:05.860Z,22.08
2022-11-09T22:21:46.933Z,34.92
2022-11-09T22:24:27.884Z,34.28
2022-11-09T22:27:08.933Z,29.00
2022-11-09T22:29:49.922Z,34.30
2022-11-09T22:32:30.987Z,22.55
2022-11-09T22:35:11.886Z,28.08
2022-11-09T22:37:52.935Z,29.35
2022-11-09T22:40:32.878Z,30.17
2022-11-09T22:43:13.954Z,31.88
2022-11-09T22:45:54.879Z,25.38
2022-11-09T22:48:43.876Z,32.55
2022-11-09T22:51:19.568Z,26.98
2022-11-09T22:54:06.857Z,28.90
2022-11-09T22:56:40.884Z,37.05
2022-11-09T22:59:28.868Z,22.85
2022-11-09T23:02:09.879Z,33.58
2022-11-09T23:04:50.957Z,20.13
2022-11-09T23:07:30.891Z,21.02
2022-11-09T23:10:11.994Z,32.00
2022-11-09T23:12:51.867Z,16.83
2022-11-09T23:15:32.991Z,20.77
2022-11-09T23:18:31.891Z,21.60
2022-11-09T23:21:19.877Z,30.23
2022-11-09T23:23:54.551Z,28.95
2022-11-09T23:26:41.866Z,26.40
2022-11-09T23:29:15.888Z,30.25
2022-11-09T23:32:03.863Z,26.55
2022-11-09T23:34:37.841Z,26.92
2022-11-09T23:37:25.878Z,21.73
2022-11-09T23:40:00.859Z,32.95
2022-11-09T23:42:48.904Z,32.47
2022-11-09T23:45:22.847Z,36.13
2022-11-09T23:48:10.884Z,39.30
2022-11-09T23:50:54.875Z,22.85
2022-11-09T23:53:42.890Z,30.75
2022-11-09T23:56:16.828Z,36.65
2022-11-09T23:59:04.862Z,33.78
